Time;durP1;ratioP1;P1;durP2;ratioP2;P2;SDS_P1;SDS_P2;PMS_P1;PMS_P2;Temp;Humidity;BMP_temperature;BMP_pressure;BME280_temperature;BME280_humidity;BME280_pressure;Samples;Min_cycle;Max_cycle;Signal;HPM_P1;HPM_P2
2024/01/19 00:01:25;;;;;;;30.88;19.60;;;;;;;;;;5095269;28;20291;-72
2024/01/19 00:03:53;;;;;;;30.67;19.17;;;;;;;;;;5095243;28;20253;-71
2024/01/19 00:06:19;;;;;;;32.50;19.25;;;;;;;;;;5094998;28;20235;-72
2024/01/19 00:08:45;;;;;;;37.65;20.75;;;;;;;;;;5094839;28;20200;-72
2024/01/19 00:11:15;;;;;;;36.90;19.77;;;;;;;;;;5094814;28;20199;-71
2024/01/19 00:13:41;;;;;;;35.15;20.33;;;;;;;;;;5095470;28;20265;-72
2024/01/19 00:16:08;;;;;;;32.88;19.75;;;;;;;;;;5094862;28;20231;-72
2024/01/19 00:18:34;;;;;;;33.70;21.23;;;;;;;;;;5094457;28;20381;-71
2024/01/19 00:21:02;;;;;;;38.95;21.52;;;;;;;;;;5094532;28;20203;-71
2024/01/19 00:23:28;;;;;;;39.83;21.52;;;;;;;;;;5094746;28;20206;-72
2024/01/19 00:25:54;;;;;;;39.45;21.40;;;;;;;;;;5094617;28;20219;-71
2024/01/19 00:28:20;;;;;;;41.63;22.98;;;;;;;;;;5094413;28;20199;-72
2024/01/19 00:30:47;;;;;;;37.70;21.10;;;;;;;;;;5094469;28;20200;-72
2024/01/19 00:33:13;;;;;;;33.88;20.42;;;;;;;;;;5094395;28;20207;-71
2024/01/19 00:35:39;;;;;;;36.67;21.48;;;;;;;;;;5094434;28;20317;-71
2024/01/19 00:38:07;;;;;;;36.03;20.98;;;;;;;;;;5094623;28;20206;-71
2024/01/19 00:40:33;;;;;;;36.15;20.05;;;;;;;;;;5094117;28;20202;-71
2024/01/19 00:42:59;;;;;;;34.58;20.85;;;;;;;;;;5094096;28;20210;-71
2024/01/19 00:45:25;;;;;;;33.00;21.05;;;;;;;;;;5094032;28;20499;-71
2024/01/19 00:47:52;;;;;;;35.88;21.52;;;;;;;;;;5094291;28;20196;-72
2024/01/19 00:50:18;;;;;;;37.58;20.98;;;;;;;;;;5093789;28;20204;-72
2024/01/19 00:52:44;;;;;;;36.00;19.80;;;;;;;;;;5093653;28;20200;-71
2024/01/19 00:55:12;;;;;;;36.28;21.58;;;;;;;;;;5094082;28;20218;-71
2024/01/19 00:57:38;;;;;;;34.30;20.23;;;;;;;;;;5093924;28;20200;-71
2024/01/19 01:00:05;;;;;;;36.03;20.42;;;;;;;;;;5093914;28;20199;-71
2024/01/19 01:02:32;;;;;;;38.08;21.55;;;;;;;;;;5093351;28;20222;-72
2024/01/19 01:04:58;;;;;;;34.25;19.98;;;;;;;;;;5093515;28;20204;-72
2024/01/19 01:07:25;;;;;;;34.28;20.83;;;;;;;;;;5093517;28;20192;-71
2024/01/19 01:09:51;;;;;;;34.42;20.42;;;;;;;;;;5093502;28;20572;-71
2024/01/19 01:12:19;;;;;;;34.08;21.73;;;;;;;;;;5093703;28;20208;-72
2024/01/19 01:14:46;;;;;;;36.95;23.42;;;;;;;;;;5093806;28;20204;-72
2024/01/19 01:17:13;;;;;;;39.50;22.33;;;;;;;;;;5093354;28;20226;-72
2024/01/19 01:19:39;;;;;;;36.75;22.38;;;;;;;;;;5093773;28;20223;-71
2024/01/19 01:22:06;;;;;;;38.90;21.85;;;;;;;;;;5093298;28;20214;-72
2024/01/19 01:24:32;;;;;;;40.00;22.98;;;;;;;;;;5093807;28;20257;-72
2024/01/19 01:26:58;;;;;;;38.38;23.38;;;;;;;;;;5095000;28;20215;-71
2024/01/19 01:29:26;;;;;;;35.50;23.20;;;;;;;;;;5098215;28;20232;-72
2024/01/19 01:31:52;;;;;;;42.70;23.40;;;;;;;;;;5107899;28;20200;-72
2024/01/19 01:34:18;;;;;;;38.58;23.55;;;;;;;;;;5107572;28;20203;-72
2024/01/19 01:36:45;;;;;;;43.17;24.38;;;;;;;;;;5111533;28;20215;-72
2024/01/19 01:39:12;;;;;;;38.03;24.35;;;;;;;;;;5111485;28;20227;-72
2024/01/19 01:41:41;;;;;;;38.25;23.17;;;;;;;;;;5106110;28;20290;-72
2024/01/19 01:44:07;;;;;;;41.30;23.02;;;;;;;;;;5092736;28;20204;-72
2024/01/19 01:46:35;;;;;;;37.88;23.55;;;;;;;;;;5092750;28;20216;-72
2024/01/19 01:49:02;;;;;;;39.45;22.88;;;;;;;;;;5092309;28;20226;-72
2024/01/19 01:51:28;;;;;;;41.28;23.50;;;;;;;;;;5092505;28;20199;-72
2024/01/19 01:53:54;;;;;;;36.80;22.75;;;;;;;;;;5092918;28;20199;-72
2024/01/19 01:56:21;;;;;;;39.33;24.20;;;;;;;;;;5092790;28;20227;-72
2024/01/19 01:58:47;;;;;;;38.80;23.92;;;;;;;;;;5092510;28;20579;-72
2024/01/19 02:01:13;;;;;;;38.25;22.58;;;;;;;;;;5092671;28;20206;-71
2024/01/19 02:03:41;;;;;;;37.85;22.13;;;;;;;;;;5092232;28;20204;-72
2024/01/19 02:06:08;;;;;;;37.25;22.23;;;;;;;;;;5092645;28;20219;-71
2024/01/19 02:08:34;;;;;;;31.60;20.25;;;;;;;;;;5092485;28;20222;-71
2024/01/19 02:11:00;;;;;;;36.47;20.30;;;;;;;;;;5092845;28;20211;-71
2024/01/19 02:13:27;;;;;;;35.03;19.67;;;;;;;;;;5091436;28;20196;-71
2024/01/19 02:15:55;;;;;;;32.83;20.27;;;;;;;;;;5092003;28;20585;-71
2024/01/19 02:18:21;;;;;;;34.13;20.42;;;;;;;;;;5092482;28;20199;-71
2024/01/19 02:20:49;;;;;;;33.42;20.60;;;;;;;;;;5092298;28;20204;-71
2024/01/19 02:23:16;;;;;;;35.47;21.00;;;;;;;;;;5092379;28;20200;-71
2024/01/19 02:25:44;;;;;;;34.25;20.23;;;;;;;;;;5092292;28;20219;-72
2024/01/19 02:28:10;;;;;;;34.85;20.67;;;;;;;;;;5092328;28;20223;-71
2024/01/19 02:30:37;;;;;;;32.92;19.58;;;;;;;;;;5092320;28;20203;-71
2024/01/19 02:33:03;;;;;;;35.33;19.00;;;;;;;;;;5091910;28;20576;-72
2024/01/19 02:35:30;;;;;;;33.20;19.90;;;;;;;;;;5092444;28;20216;-72
2024/01/19 02:37:55;;;;;;;29.52;20.60;;;;;;;;;;5092231;28;20220;-72
2024/01/19 02:40:21;;;;;;;30.70;18.83;;;;;;;;;;5092514;28;20206;-72
2024/01/19 02:42:49;;;;;;;32.55;19.02;;;;;;;;;;5092377;28;20207;-72
2024/01/19 02:45:15;;;;;;;32.35;20.65;;;;;;;;;;5092271;28;20228;-72
2024/01/19 02:47:42;;;;;;;32.13;20.38;;;;;;;;;;5091680;28;20199;-71
2024/01/19 02:50:08;;;;;;;30.13;20.23;;;;;;;;;;5092716;28;20303;-71
2024/01/19 02:52:34;;;;;;;29.40;19.52;;;;;;;;;;5092159;28;20200;-71
2024/01/19 02:55:01;;;;;;;31.75;19.50;;;;;;;;;;5091980;28;20563;-72
2024/01/19 02:57:27;;;;;;;31.73;19.52;;;;;;;;;;5092169;28;20223;-72
2024/01/19 02:59:55;;;;;;;36.92;19.77;;;;;;;;;;5092429;28;20195;-72
2024/01/19 03:02:21;;;;;;;29.23;19.55;;;;;;;;;;5092105;28;20200;-71
2024/01/19 03:04:47;;;;;;;31.02;19.42;;;;;;;;;;5091979;28;20625;-72
2024/01/19 03:07:13;;;;;;;33.90;19.85;;;;;;;;;;5091970;28;20239;-72
2024/01/19 03:09:40;;;;;;;32.53;20.83;;;;;;;;;;5092142;28;20233;-72
2024/01/19 03:12:06;;;;;;;32.17;21.13;;;;;;;;;;5091911;28;20704;-71
2024/01/19 03:14:33;;;;;;;33.55;20.52;;;;;;;;;;5092046;28;20207;-71
2024/01/19 03:17:00;;;;;;;32.50;19.80;;;;;;;;;;5091937;28;20235;-72
2024/01/19 03:19:27;;;;;;;30.58;19.80;;;;;;;;;;5092020;28;20195;-72
2024/01/19 03:21:53;;;;;;;32.33;20.38;;;;;;;;;;5091671;28;20693;-72
2024/01/19 03:24:19;;;;;;;31.67;19.45;;;;;;;;;;5092031;28;20223;-72
2024/01/19 03:26:46;;;;;;;35.92;21.67;;;;;;;;;;5095991;28;20220;-72
2024/01/19 03:29:12;;;;;;;34.20;21.52;;;;;;;;;;5095315;28;20204;-74
2024/01/19 03:31:38;;;;;;;34.70;20.95;;;;;;;;;;5095534;28;20664;-72
2024/01/19 03:34:06;;;;;;;29.63;18.73;;;;;;;;;;5095854;28;20371;-72
2024/01/19 03:36:32;;;;;;;30.30;19.48;;;;;;;;;;5095364;28;20234;-72
2024/01/19 03:38:59;;;;;;;33.15;20.52;;;;;;;;;;5095145;28;20207;-72
2024/01/19 03:41:25;;;;;;;31.77;20.17;;;;;;;;;;5095224;28;20203;-72
2024/01/19 03:43:51;;;;;;;34.65;18.90;;;;;;;;;;5095068;28;20200;-71
2024/01/19 03:46:17;;;;;;;34.25;18.60;;;;;;;;;;5095253;28;20215;-71
2024/01/19 03:48:44;;;;;;;31.25;19.75;;;;;;;;;;5095105;28;20203;-71
2024/01/19 03:51:11;;;;;;;33.55;20.02;;;;;;;;;;5095085;28;20664;-72
2024/01/19 03:53:38;;;;;;;31.85;19.42;;;;;;;;;;5095033;28;20204;-71
2024/01/19 03:56:04;;;;;;;30.55;20.15;;;;;;;;;;5095013;28;20228;-71
2024/01/19 03:58:30;;;;;;;36.05;20.98;;;;;;;;;;5094546;28;20204;-71
2024/01/19 04:00:56;;;;;;;32.17;20.25;;;;;;;;;;5094802;28;20207;-71
2024/01/19 04:03:23;;;;;;;31.70;19.13;;;;;;;;;;5094886;28;20203;-72
2024/01/19 04:05:49;;;;;;;28.70;19.00;;;;;;;;;;5094632;28;20220;-72
2024/01/19 04:08:17;;;;;;;33.85;20.08;;;;;;;;;;5095031;28;20257;-71
2024/01/19 04:10:43;;;;;;;29.02;19.33;;;;;;;;;;5094660;28;20710;-72
2024/01/19 04:13:09;;;;;;;31.60;19.83;;;;;;;;;;5095006;28;20720;-72
2024/01/19 04:15:35;;;;;;;33.35;18.55;;;;;;;;;;5094625;28;20653;-72
2024/01/19 04:18:02;;;;;;;31.65;19.33;;;;;;;;;;5094570;28;20239;-73
2024/01/19 04:20:28;;;;;;;29.15;18.95;;;;;;;;;;5094333;28;20237;-71
2024/01/19 04:22:54;;;;;;;31.45;19.42;;;;;;;;;;5094148;28;20690;-72
2024/01/19 04:25:22;;;;;;;28.38;18.98;;;;;;;;;;5093953;28;20711;-72
2024/01/19 04:27:48;;;;;;;34.97;20.05;;;;;;;;;;5094258;28;20618;-71
2024/01/19 04:30:14;;;;;;;32.25;19.80;;;;;;;;;;5094229;28;20199;-71
2024/01/19 04:32:41;;;;;;;30.55;19.52;;;;;;;;;;5094109;28;20215;-71
2024/01/19 04:35:07;;;;;;;32.67;19.20;;;;;;;;;;5093977;28;20204;-71
2024/01/19 04:37:33;;;;;;;28.38;18.35;;;;;;;;;;5093506;28;20246;-71
2024/01/19 04:40:00;;;;;;;27.92;18.10;;;;;;;;;;5094083;28;20203;-71
2024/01/19 04:42:27;;;;;;;26.58;19.08;;;;;;;;;;5094382;28;20207;-72
2024/01/19 04:44:53;;;;;;;33.15;19.15;;;;;;;;;;5093866;28;20204;-72
2024/01/19 04:47:20;;;;;;;29.02;20.08;;;;;;;;;;5094053;28;20196;-72
2024/01/19 04:49:46;;;;;;;29.55;18.98;;;;;;;;;;5093845;28;20273;-72
2024/01/19 04:52:12;;;;;;;29.38;19.60;;;;;;;;;;5093712;28;20253;-72
2024/01/19 04:54:39;;;;;;;28.30;18.92;;;;;;;;;;5093475;28;20200;-72
2024/01/19 04:57:05;;;;;;;30.95;19.60;;;;;;;;;;5093637;28;20228;-72
2024/01/19 04:59:32;;;;;;;32.83;19.30;;;;;;;;;;5094031;28;20207;-72
2024/01/19 05:01:59;;;;;;;27.63;18.67;;;;;;;;;;5093487;28;20245;-72
2024/01/19 05:04:25;;;;;;;29.27;19.90;;;;;;;;;;5093693;28;20203;-72
2024/01/19 05:06:51;;;;;;;29.02;19.48;;;;;;;;;;5093390;28;20708;-72
2024/01/19 05:09:18;;;;;;;31.73;20.35;;;;;;;;;;5093166;28;20295;-72
2024/01/19 05:11:44;;;;;;;32.97;19.88;;;;;;;;;;5093492;28;20200;-71
2024/01/19 05:14:11;;;;;;;32.50;19.98;;;;;;;;;;5093407;28;20199;-72
2024/01/19 05:16:38;;;;;;;32.00;20.33;;;;;;;;;;5093216;28;20710;-71
2024/01/19 05:19:05;;;;;;;27.98;19.45;;;;;;;;;;5093034;28;20359;-72
2024/01/19 05:21:31;;;;;;;31.88;19.60;;;;;;;;;;5093220;28;20218;-72
2024/01/19 05:23:57;;;;;;;32.65;19.90;;;;;;;;;;5093619;28;20215;-72
2024/01/19 05:26:25;;;;;;;28.90;19.55;;;;;;;;;;5093278;28;20223;-72
2024/01/19 05:28:52;;;;;;;25.85;18.73;;;;;;;;;;5093175;28;20200;-72
2024/01/19 05:31:18;;;;;;;28.25;19.05;;;;;;;;;;5093036;28;20200;-72
2024/01/19 05:33:45;;;;;;;26.83;18.00;;;;;;;;;;5092939;28;20234;-72
2024/01/19 05:36:12;;;;;;;27.38;19.02;;;;;;;;;;5093039;28;20224;-71
2024/01/19 05:38:38;;;;;;;28.48;18.40;;;;;;;;;;5092929;28;20234;-71
2024/01/19 05:41:04;;;;;;;33.17;19.60;;;;;;;;;;5093181;28;20241;-71
2024/01/19 05:43:31;;;;;;;26.92;19.13;;;;;;;;;;5093247;28;20245;-71
2024/01/19 05:45:57;;;;;;;30.35;19.25;;;;;;;;;;5092559;28;20307;-71
2024/01/19 05:48:25;;;;;;;32.55;19.65;;;;;;;;;;5092838;28;20202;-71
2024/01/19 05:50:52;;;;;;;28.33;19.35;;;;;;;;;;5092556;28;20196;-72
2024/01/19 05:53:18;;;;;;;29.60;18.60;;;;;;;;;;5092841;28;20205;-72
2024/01/19 05:55:45;;;;;;;30.40;19.38;;;;;;;;;;5092881;28;20220;-71
2024/01/19 05:58:11;;;;;;;29.98;18.42;;;;;;;;;;5092362;28;20226;-72
2024/01/19 06:00:37;;;;;;;28.15;18.65;;;;;;;;;;5092639;28;20253;-71
2024/01/19 06:03:03;;;;;;;29.38;18.15;;;;;;;;;;5092704;28;20401;-72
2024/01/19 06:05:30;;;;;;;30.05;18.92;;;;;;;;;;5092298;28;20223;-71
2024/01/19 06:07:57;;;;;;;30.48;19.42;;;;;;;;;;5092498;28;20203;-72
2024/01/19 06:10:24;;;;;;;25.92;17.60;;;;;;;;;;5092336;28;20203;-71
2024/01/19 06:12:50;;;;;;;30.17;18.85;;;;;;;;;;5092248;28;20199;-70
2024/01/19 06:15:16;;;;;;;29.90;18.83;;;;;;;;;;5092305;28;20250;-71
2024/01/19 06:17:43;;;;;;;25.92;18.00;;;;;;;;;;5092510;28;20277;-71
2024/01/19 06:20:09;;;;;;;27.02;18.55;;;;;;;;;;5091956;28;20264;-72
2024/01/19 06:22:37;;;;;;;27.23;18.17;;;;;;;;;;5092174;28;20199;-72
2024/01/19 06:25:05;;;;;;;31.27;20.27;;;;;;;;;;5092441;28;20202;-72
2024/01/19 06:27:31;;;;;;;31.33;19.92;;;;;;;;;;5092011;28;20199;-72
2024/01/19 06:29:57;;;;;;;30.80;18.75;;;;;;;;;;5092220;28;20203;-71
2024/01/19 06:32:24;;;;;;;31.17;19.00;;;;;;;;;;5092003;28;20211;-71
2024/01/19 06:34:50;;;;;;;26.63;18.60;;;;;;;;;;5092354;28;20204;-71
2024/01/19 06:37:16;;;;;;;30.95;18.42;;;;;;;;;;5091956;28;20227;-71
2024/01/19 06:39:45;;;;;;;31.42;19.00;;;;;;;;;;5092330;28;20200;-71
2024/01/19 06:42:13;;;;;;;27.02;18.17;;;;;;;;;;5092376;28;20212;-71
2024/01/19 06:44:41;;;;;;;29.60;19.10;;;;;;;;;;5092168;28;20295;-72
2024/01/19 06:47:08;;;;;;;27.40;18.85;;;;;;;;;;5091542;28;20711;-59
2024/01/19 06:49:36;;;;;;;29.60;19.60;;;;;;;;;;5091951;28;20208;-59
2024/01/19 06:52:04;;;;;;;29.05;18.65;;;;;;;;;;5091756;28;20256;-59
2024/01/19 06:54:30;;;;;;;28.88;18.42;;;;;;;;;;5091902;28;20255;-59
2024/01/19 06:56:57;;;;;;;25.33;18.77;;;;;;;;;;5091482;28;20223;-59
2024/01/19 06:59:25;;;;;;;29.23;19.38;;;;;;;;;;5091543;28;20192;-59
2024/01/19 07:01:51;;;;;;;27.73;18.10;;;;;;;;;;5095414;28;20199;-60
2024/01/19 07:04:17;;;;;;;28.30;18.33;;;;;;;;;;5095816;28;20199;-60
2024/01/19 07:06:43;;;;;;;31.77;17.92;;;;;;;;;;5095749;28;20227;-61
2024/01/19 07:09:10;;;;;;;29.42;18.80;;;;;;;;;;5095714;28;20235;-60
2024/01/19 07:11:36;;;;;;;29.00;18.80;;;;;;;;;;5095817;28;20210;-60
2024/01/19 07:14:03;;;;;;;26.90;17.17;;;;;;;;;;5095649;28;20202;-60
2024/01/19 07:16:30;;;;;;;29.58;17.92;;;;;;;;;;5095405;28;20234;-60
2024/01/19 07:18:57;;;;;;;31.33;18.45;;;;;;;;;;5095785;28;20219;-60
2024/01/19 07:21:23;;;;;;;26.23;16.58;;;;;;;;;;5095616;28;20204;-60
2024/01/19 07:23:49;;;;;;;27.65;17.27;;;;;;;;;;5095605;28;20215;-60
2024/01/19 07:26:18;;;;;;;26.10;17.00;;;;;;;;;;5095308;28;20257;-61
2024/01/19 07:28:44;;;;;;;27.52;16.48;;;;;;;;;;5095172;28;20245;-60
2024/01/19 07:31:11;;;;;;;24.92;15.98;;;;;;;;;;5095251;28;20211;-60
2024/01/19 07:33:38;;;;;;;19.70;15.05;;;;;;;;;;5094848;28;20200;-63
2024/01/19 07:36:05;;;;;;;25.58;16.15;;;;;;;;;;5084755;28;20277;-64
2024/01/19 07:38:31;;;;;;;22.95;14.90;;;;;;;;;;5088300;28;20271;-65
2024/01/19 07:40:58;;;;;;;26.58;16.23;;;;;;;;;;5088618;28;20216;-64
2024/01/19 07:43:25;;;;;;;22.02;14.93;;;;;;;;;;5088639;28;20214;-63
2024/01/19 07:45:51;;;;;;;23.45;14.27;;;;;;;;;;5088647;28;20657;-62
2024/01/19 07:48:17;;;;;;;23.30;15.00;;;;;;;;;;5088586;28;20208;-61
2024/01/19 07:50:45;;;;;;;18.50;13.75;;;;;;;;;;5085468;28;20225;-63
2024/01/19 07:53:11;;;;;;;25.45;15.27;;;;;;;;;;5085337;28;20211;-63
2024/01/19 07:55:37;;;;;;;23.73;15.65;;;;;;;;;;5086051;28;20486;-61
2024/01/19 07:58:04;;;;;;;24.48;15.55;;;;;;;;;;5086203;28;20232;-63
2024/01/19 08:00:30;;;;;;;25.15;16.27;;;;;;;;;;5086648;28;20211;-64
2024/01/19 08:02:56;;;;;;;23.70;15.20;;;;;;;;;;5093037;28;20687;-65
2024/01/19 08:05:22;;;;;;;27.65;16.70;;;;;;;;;;5092913;28;20223;-63
2024/01/19 08:07:52;;;;;;;27.98;16.95;;;;;;;;;;5087993;28;20249;-63
2024/01/19 08:10:18;;;;;;;24.50;15.68;;;;;;;;;;5087596;28;20235;-63
2024/01/19 08:12:45;;;;;;;27.42;17.92;;;;;;;;;;5086539;28;20294;-64
2024/01/19 08:15:11;;;;;;;24.05;15.88;;;;;;;;;;5086921;28;20211;-63
2024/01/19 08:17:37;;;;;;;24.45;16.13;;;;;;;;;;5087342;28;20223;-64
2024/01/19 08:20:04;;;;;;;26.20;16.10;;;;;;;;;;5086435;28;20539;-63
2024/01/19 08:22:30;;;;;;;27.20;17.48;;;;;;;;;;5087586;28;20215;-64
2024/01/19 08:24:58;;;;;;;23.40;16.17;;;;;;;;;;5086839;28;20207;-64
2024/01/19 08:27:24;;;;;;;26.63;16.38;;;;;;;;;;5086828;28;20229;-63
2024/01/19 08:29:50;;;;;;;21.60;15.40;;;;;;;;;;5087261;28;20196;-62
2024/01/19 08:32:17;;;;;;;25.88;16.35;;;;;;;;;;5087053;28;20219;-64
2024/01/19 08:34:44;;;;;;;25.77;16.75;;;;;;;;;;5086967;28;20203;-64
2024/01/19 08:37:10;;;;;;;26.35;16.60;;;;;;;;;;5087280;28;20223;-64
2024/01/19 08:39:37;;;;;;;25.15;17.83;;;;;;;;;;5086533;28;20228;-64
2024/01/19 08:42:06;;;;;;;29.25;19.20;;;;;;;;;;5086616;28;20215;-62
2024/01/19 08:44:32;;;;;;;32.67;19.35;;;;;;;;;;5086420;28;20208;-62
2024/01/19 08:46:58;;;;;;;26.13;17.08;;;;;;;;;;5086752;28;20255;-63
2024/01/19 08:49:25;;;;;;;27.63;17.08;;;;;;;;;;5085677;28;20203;-62
2024/01/19 08:51:53;;;;;;;30.38;18.35;;;;;;;;;;5086186;28;20299;-62
2024/01/19 08:54:19;;;;;;;27.33;16.80;;;;;;;;;;5086223;28;20265;-63
2024/01/19 08:56:45;;;;;;;29.45;17.05;;;;;;;;;;5086070;28;20582;-64
2024/01/19 08:59:13;;;;;;;26.50;15.65;;;;;;;;;;5086545;28;20850;-62
2024/01/19 09:01:39;;;;;;;24.27;15.68;;;;;;;;;;5086147;28;20228;-63
2024/01/19 09:04:05;;;;;;;24.85;15.90;;;;;;;;;;5085556;28;20237;-62
2024/01/19 09:06:32;;;;;;;24.73;17.00;;;;;;;;;;5086111;28;20234;-62
2024/01/19 09:09:01;;;;;;;26.75;16.58;;;;;;;;;;5086030;28;20241;-63
2024/01/19 09:11:27;;;;;;;23.95;16.10;;;;;;;;;;5085887;28;20269;-63
2024/01/19 09:13:53;;;;;;;27.90;15.45;;;;;;;;;;5086315;28;20731;-63
2024/01/19 09:16:21;;;;;;;26.88;15.82;;;;;;;;;;5086541;28;20712;-62
2024/01/19 09:18:47;;;;;;;25.92;15.90;;;;;;;;;;5085937;28;20285;-64
2024/01/19 09:21:16;;;;;;;26.45;17.13;;;;;;;;;;5085039;28;20688;-64
2024/01/19 09:23:42;;;;;;;26.00;16.17;;;;;;;;;;5086006;28;20535;-63
2024/01/19 09:26:17;;;;;;;26.02;16.73;;;;;;;;;;5086238;28;20760;-62
2024/01/19 09:28:43;;;;;;;23.55;14.85;;;;;;;;;;5085738;28;20203;-61
2024/01/19 09:31:09;;;;;;;25.70;16.42;;;;;;;;;;5085746;28;20234;-62
2024/01/19 09:33:37;;;;;;;26.10;15.55;;;;;;;;;;5085323;28;20208;-63
2024/01/19 09:36:03;;;;;;;25.60;15.52;;;;;;;;;;5085850;28;20224;-60
2024/01/19 09:38:30;;;;;;;23.65;15.10;;;;;;;;;;5085644;28;20708;-61
2024/01/19 09:40:59;;;;;;;22.80;15.05;;;;;;;;;;5085444;28;20561;-61
2024/01/19 09:43:25;;;;;;;22.50;15.20;;;;;;;;;;5085820;28;20219;-61
2024/01/19 09:45:55;;;;;;;23.85;14.93;;;;;;;;;;5085203;28;20228;-60
2024/01/19 09:48:23;;;;;;;27.08;16.23;;;;;;;;;;5085233;28;20203;-62
2024/01/19 09:50:51;;;;;;;22.88;15.38;;;;;;;;;;5084654;28;20578;-60
2024/01/19 09:53:21;;;;;;;21.00;14.73;;;;;;;;;;5085669;28;20280;-61
2024/01/19 09:55:48;;;;;;;25.80;16.23;;;;;;;;;;5085144;28;20227;-61
2024/01/19 09:58:14;;;;;;;23.50;15.70;;;;;;;;;;5084743;28;20213;-63
2024/01/19 10:00:41;;;;;;;22.67;14.85;;;;;;;;;;5085218;28;20215;-60
2024/01/19 10:03:08;;;;;;;24.42;15.40;;;;;;;;;;5084553;28;20208;-61
2024/01/19 10:05:35;;;;;;;26.27;15.35;;;;;;;;;;5085144;28;20707;-61
2024/01/19 10:08:04;;;;;;;25.98;15.40;;;;;;;;;;5085451;28;20261;-61
2024/01/19 10:10:30;;;;;;;21.50;14.65;;;;;;;;;;5085164;28;20204;-61
2024/01/19 10:12:56;;;;;;;29.17;16.33;;;;;;;;;;5085117;28;20272;-60
2024/01/19 10:15:23;;;;;;;21.38;15.95;;;;;;;;;;5084886;28;20233;-62
2024/01/19 10:17:49;;;;;;;25.48;16.65;;;;;;;;;;5084608;28;20684;-61
2024/01/19 10:20:16;;;;;;;25.83;15.88;;;;;;;;;;5084784;28;20227;-60
2024/01/19 10:22:42;;;;;;;21.10;14.38;;;;;;;;;;5085593;28;20212;-61
2024/01/19 10:25:11;;;;;;;22.83;14.23;;;;;;;;;;5085182;28;20203;-60
2024/01/19 10:27:42;;;;;;;22.70;14.57;;;;;;;;;;5084424;28;20211;-60
2024/01/19 10:30:09;;;;;;;19.88;13.80;;;;;;;;;;5084479;28;20207;-60
2024/01/19 10:32:36;;;;;;;23.52;16.05;;;;;;;;;;5084694;28;20211;-60
2024/01/19 10:35:07;;;;;;;28.75;16.95;;;;;;;;;;5083845;28;20577;-60
2024/01/19 10:37:33;;;;;;;28.45;15.88;;;;;;;;;;5085088;28;20217;-61
2024/01/19 10:40:13;;;;;;;27.90;15.68;;;;;;;;;;5084602;28;20751;-62
2024/01/19 10:42:41;;;;;;;26.65;16.42;;;;;;;;;;5084873;28;20203;-60
2024/01/19 10:45:14;;;;;;;26.33;17.08;;;;;;;;;;5085044;28;20219;-59
2024/01/19 10:47:42;;;;;;;26.33;15.30;;;;;;;;;;5085028;28;20239;-59
2024/01/19 10:50:11;;;;;;;23.77;16.17;;;;;;;;;;5084222;28;20204;-61
2024/01/19 10:52:38;;;;;;;24.25;16.10;;;;;;;;;;5084725;28;20212;-62
2024/01/19 10:55:04;;;;;;;22.00;14.15;;;;;;;;;;5084163;28;20614;-61
2024/01/19 10:57:31;;;;;;;22.85;14.65;;;;;;;;;;5084396;28;20207;-62
2024/01/19 10:59:58;;;;;;;20.55;15.10;;;;;;;;;;5084237;28;20703;-63
2024/01/19 11:02:25;;;;;;;21.02;14.27;;;;;;;;;;5084333;28;20738;-62
2024/01/19 11:04:52;;;;;;;26.73;15.82;;;;;;;;;;5084242;28;20260;-61
2024/01/19 11:07:18;;;;;;;21.15;14.77;;;;;;;;;;5084115;28;20224;-63
2024/01/19 11:09:44;;;;;;;22.45;14.63;;;;;;;;;;5084136;28;21080;-60
2024/01/19 11:12:12;;;;;;;25.65;14.48;;;;;;;;;;5084961;28;20259;-61
2024/01/19 11:14:38;;;;;;;23.90;15.50;;;;;;;;;;5084844;28;20204;-62
2024/01/19 11:17:07;;;;;;;20.92;15.18;;;;;;;;;;5084674;28;20615;-62
2024/01/19 11:19:33;;;;;;;23.48;15.88;;;;;;;;;;5083445;28;20707;-61
2024/01/19 11:22:00;;;;;;;21.67;14.95;;;;;;;;;;5084093;28;20642;-60
2024/01/19 11:24:28;;;;;;;22.77;15.65;;;;;;;;;;5067715;28;20269;-63
2024/01/19 11:27:00;;;;;;;20.27;15.15;;;;;;;;;;5083856;28;20227;-61
2024/01/19 11:29:28;;;;;;;25.50;16.15;;;;;;;;;;5084215;28;20607;-61
2024/01/19 11:31:55;;;;;;;24.83;14.52;;;;;;;;;;5084038;28;20285;-61
2024/01/19 11:34:45;;;;;;;23.52;15.40;;;;;;;;;;5084373;28;20212;-62
2024/01/19 11:37:26;;;;;;;23.17;16.40;;;;;;;;;;5084759;28;20224;-61
2024/01/19 11:39:53;;;;;;;27.33;15.82;;;;;;;;;;5083796;28;20227;-63
2024/01/19 11:42:34;;;;;;;22.95;16.10;;;;;;;;;;5084493;28;20452;-63
2024/01/19 11:45:00;;;;;;;21.52;15.18;;;;;;;;;;5083811;28;20212;-63
2024/01/19 11:47:45;;;;;;;24.95;15.95;;;;;;;;;;5087433;28;20288;-63
2024/01/19 11:50:13;;;;;;;21.45;14.93;;;;;;;;;;5087752;28;20206;-62
2024/01/19 11:52:40;;;;;;;22.88;14.80;;;;;;;;;;5088168;28;20242;-62
2024/01/19 11:55:33;;;;;;;24.30;16.38;;;;;;;;;;5087720;28;20268;-63
2024/01/19 11:58:25;;;;;;;22.27;15.48;;;;;;;;;;5046211;28;20592;-62
2024/01/19 12:00:53;;;;;;;19.42;14.10;;;;;;;;;;5086973;28;20273;-62
2024/01/19 12:03:20;;;;;;;19.45;13.82;;;;;;;;;;5087113;28;20378;-63
2024/01/19 12:05:48;;;;;;;23.58;13.90;;;;;;;;;;5087263;28;20606;-64
2024/01/19 12:08:14;;;;;;;20.27;12.80;;;;;;;;;;5087349;28;20212;-63
2024/01/19 12:10:42;;;;;;;17.67;13.63;;;;;;;;;;5087443;28;20200;-64
2024/01/19 12:13:08;;;;;;;21.67;13.35;;;;;;;;;;5087401;28;20237;-64
2024/01/19 12:15:35;;;;;;;21.50;13.38;;;;;;;;;;5086939;28;20328;-65
2024/01/19 12:18:03;;;;;;;15.45;12.13;;;;;;;;;;5087047;28;20651;-63
2024/01/19 12:20:29;;;;;;;16.23;12.85;;;;;;;;;;5086856;28;20223;-63
2024/01/19 12:22:57;;;;;;;14.43;11.30;;;;;;;;;;5087128;28;20287;-63
2024/01/19 12:25:24;;;;;;;19.38;12.10;;;;;;;;;;5086981;28;20285;-63
2024/01/19 12:28:01;;;;;;;18.20;12.52;;;;;;;;;;5086831;28;20285;-63
2024/01/19 12:30:31;;;;;;;15.85;11.10;;;;;;;;;;5086749;28;20290;-63
2024/01/19 12:32:57;;;;;;;14.93;11.10;;;;;;;;;;5085751;28;20244;-64
2024/01/19 12:35:23;;;;;;;18.73;11.93;;;;;;;;;;5085870;28;20238;-64
2024/01/19 12:37:49;;;;;;;16.95;11.88;;;;;;;;;;5086456;28;20292;-63
2024/01/19 12:40:17;;;;;;;17.45;12.27;;;;;;;;;;5086177;28;20773;-63
2024/01/19 12:42:44;;;;;;;19.02;12.00;;;;;;;;;;5085937;28;20216;-62
2024/01/19 12:45:11;;;;;;;13.43;11.18;;;;;;;;;;5086230;28;20207;-63
2024/01/19 12:47:41;;;;;;;13.63;10.85;;;;;;;;;;5086860;28;20212;-63
2024/01/19 12:50:08;;;;;;;14.23;10.68;;;;;;;;;;5086129;28;20207;-62
2024/01/19 12:52:34;;;;;;;17.30;11.10;;;;;;;;;;5086176;28;20212;-63
2024/01/19 12:55:00;;;;;;;16.80;9.70;;;;;;;;;;5086406;28;20324;-63
2024/01/19 12:57:28;;;;;;;11.20;8.95;;;;;;;;;;5084929;28;20215;-64
2024/01/19 13:00:08;;;;;;;10.55;9.00;;;;;;;;;;5086005;28;20232;-64
2024/01/19 13:02:34;;;;;;;11.82;9.52;;;;;;;;;;5085637;28;20222;-64
2024/01/19 13:05:00;;;;;;;14.95;10.48;;;;;;;;;;5085705;28;20215;-62
2024/01/19 13:07:27;;;;;;;17.83;11.25;;;;;;;;;;5085581;28;20208;-62
2024/01/19 13:10:00;;;;;;;21.08;10.77;;;;;;;;;;5086350;28;20203;-62
2024/01/19 13:12:28;;;;;;;16.73;10.05;;;;;;;;;;5085893;28;20269;-63
2024/01/19 13:15:03;;;;;;;10.80;9.57;;;;;;;;;;5085942;28;20215;-63
2024/01/19 13:17:29;;;;;;;13.40;9.68;;;;;;;;;;5085923;28;20207;-63
2024/01/19 13:19:55;;;;;;;15.20;10.43;;;;;;;;;;5085765;28;20226;-62
2024/01/19 13:22:22;;;;;;;18.10;10.35;;;;;;;;;;5086187;28;20285;-62
2024/01/19 13:24:49;;;;;;;13.18;10.48;;;;;;;;;;5085981;28;20261;-63
2024/01/19 13:27:15;;;;;;;19.20;11.20;;;;;;;;;;5085649;28;20223;-63
2024/01/19 13:29:43;;;;;;;16.13;10.85;;;;;;;;;;5086130;28;20278;-61
2024/01/19 13:32:10;;;;;;;14.13;11.20;;;;;;;;;;5091266;28;20316;-62
2024/01/19 13:34:36;;;;;;;17.30;11.40;;;;;;;;;;5090663;28;20212;-61
2024/01/19 13:37:02;;;;;;;19.20;12.77;;;;;;;;;;5090464;28;20231;-62
2024/01/19 13:39:28;;;;;;;17.88;12.13;;;;;;;;;;5090725;28;20298;-60
2024/01/19 13:41:55;;;;;;;22.65;12.65;;;;;;;;;;5091309;28;20207;-60
2024/01/19 13:44:46;;;;;;;18.23;10.90;;;;;;;;;;5090655;28;20293;-60
2024/01/19 13:47:13;;;;;;;15.05;11.15;;;;;;;;;;5089715;28;20231;-62
2024/01/19 13:49:40;;;;;;;14.00;10.52;;;;;;;;;;5087667;28;20202;-61
2024/01/19 13:52:07;;;;;;;15.35;10.32;;;;;;;;;;5087009;28;20215;-61
2024/01/19 13:54:33;;;;;;;11.75;10.13;;;;;;;;;;5086353;28;20218;-61
2024/01/19 13:57:00;;;;;;;14.90;9.93;;;;;;;;;;5083986;28;20300;-61
2024/01/19 13:59:26;;;;;;;12.10;9.50;;;;;;;;;;5084006;28;20211;-61
2024/01/19 14:01:52;;;;;;;13.52;9.75;;;;;;;;;;5084286;28;20621;-61
2024/01/19 14:04:20;;;;;;;15.48;10.25;;;;;;;;;;5084581;28;20635;-61
2024/01/19 14:06:47;;;;;;;12.05;10.38;;;;;;;;;;5085487;28;20232;-61
2024/01/19 14:09:13;;;;;;;13.73;10.45;;;;;;;;;;5084316;28;20594;-61
2024/01/19 14:11:40;;;;;;;15.82;10.52;;;;;;;;;;5085425;28;20837;-63
2024/01/19 14:14:06;;;;;;;14.25;10.65;;;;;;;;;;5085190;28;20589;-61
2024/01/19 14:16:32;;;;;;;15.23;9.90;;;;;;;;;;5084788;28;20228;-62
2024/01/19 14:18:59;;;;;;;14.90;10.50;;;;;;;;;;5084786;28;20216;-61